Pagina principale
METAR-TAF:

METAR-TAF

Aeroporti :

Aeroporto di Oslo-Gardermoen

Oslo, Norvegia

latitudine: 60-12N, longitudine: 011-05E, altezza: 208 m

Osservazione

Il bollettino è stato emesso 19 minuti fa, alle 17:20 UTC
Vento 7 kt da sud
Temperature 17°C
Umidità 55%
Pressione 1008 hPa
Visibilità 10 km o più
nessuna nube inferiore a 1500 m e nessun cumulonembo

METAR: ENGM 141720Z 19007KT CAVOK 17/08 Q1008 NOSIG

Ora: 19:39 (17:39 UTC)

Previsione

Previsione valida dal 14 alle 12 UTC al 15 alle 12 UTC
Vento 8 kt da sud
Visibilità 10 km o più
nessuna nube inferiore a 1500 m e nessun cumulonembo
Probabilità 40%
dal 15 alle 01 UTC al 15 alle 07 UTC
Visibilità: 0800 m
ad un'altezza di 200 ft
nebbia

TAF: ENGM 1412/1512 17008KT CAVOK PROB40 1501/1507 0800 FG VV002

Osservazioni e previsioni meteorologiche di più di 4000 aeroporti (messaggi METAR e TAF).

Le stazioni disponibili sono rappresentate dai dischi gialli e rossi sulla carta.

Puntare il mouse per vedere il nome della stazione.

Clicca sopra per visualizzare le osservazioni e previsioni meteorologiche.

Per cambiare la mappa : fare clic sui pulsanti verdi con una croce nera per ingrandire, il pulsante verde con un trattino per diminuire, o sulla freccia verde per le mappe adiacenti.


METAR-TAF: